sensor_id;sensor_type;location;lat;lon;timestamp;pressure;altitude;pressure_sealevel;temperature;humidity
15794;BME280;7999;51.208;4.244;2022-07-10T00:00:43;102850.78;;;14.45;64.99
15794;BME280;7999;51.208;4.244;2022-07-10T00:03:09;102853.47;;;14.48;64.60
15794;BME280;7999;51.208;4.244;2022-07-10T00:05:37;102861.31;;;14.48;64.47
15794;BME280;7999;51.208;4.244;2022-07-10T00:08:04;102851.81;;;14.53;64.29
15794;BME280;7999;51.208;4.244;2022-07-10T00:10:31;102859.66;;;14.52;64.24
15794;BME280;7999;51.208;4.244;2022-07-10T00:12:58;102861.28;;;14.47;64.64
15794;BME280;7999;51.208;4.244;2022-07-10T00:15:25;102858.56;;;14.42;64.76
15794;BME280;7999;51.208;4.244;2022-07-10T00:17:54;102859.31;;;14.34;65.00
15794;BME280;7999;51.208;4.244;2022-07-10T00:20:21;102858.44;;;14.33;65.17
15794;BME280;7999;51.208;4.244;2022-07-10T00:22:49;102849.59;;;14.25;65.17
15794;BME280;7999;51.208;4.244;2022-07-10T00:25:16;102851.16;;;14.17;65.79
15794;BME280;7999;51.208;4.244;2022-07-10T00:27:43;102854.59;;;14.13;65.73
15794;BME280;7999;51.208;4.244;2022-07-10T00:30:11;102849.16;;;14.01;66.64
15794;BME280;7999;51.208;4.244;2022-07-10T00:32:39;102857.63;;;13.87;67.13
15794;BME280;7999;51.208;4.244;2022-07-10T00:35:06;102848.72;;;13.76;67.67
15794;BME280;7999;51.208;4.244;2022-07-10T00:37:33;102843.44;;;13.73;67.44
15794;BME280;7999;51.208;4.244;2022-07-10T00:40:01;102837.09;;;13.62;68.16
15794;BME280;7999;51.208;4.244;2022-07-10T00:42:29;102841.38;;;13.58;68.68
15794;BME280;7999;51.208;4.244;2022-07-10T00:44:56;102830.91;;;13.57;68.60
15794;BME280;7999;51.208;4.244;2022-07-10T00:47:23;102830.53;;;13.39;69.71
15794;BME280;7999;51.208;4.244;2022-07-10T00:49:50;102832.19;;;13.34;69.78
15794;BME280;7999;51.208;4.244;2022-07-10T00:52:17;102831.16;;;13.25;70.36
15794;BME280;7999;51.208;4.244;2022-07-10T00:54:45;102838.19;;;12.89;72.16
15794;BME280;7999;51.208;4.244;2022-07-10T00:57:14;102824.47;;;12.99;71.83
15794;BME280;7999;51.208;4.244;2022-07-10T00:59:41;102825.47;;;13.06;71.60
15794;BME280;7999;51.208;4.244;2022-07-10T01:02:08;102825.25;;;12.95;72.09
15794;BME280;7999;51.208;4.244;2022-07-10T01:04:35;102826.88;;;12.88;72.12
15794;BME280;7999;51.208;4.244;2022-07-10T01:07:03;102831.22;;;12.88;71.96
15794;BME280;7999;51.208;4.244;2022-07-10T01:09:30;102827.50;;;12.78;72.77
15794;BME280;7999;51.208;4.244;2022-07-10T01:11:58;102824.84;;;12.77;72.78
15794;BME280;7999;51.208;4.244;2022-07-10T01:14:27;102822.31;;;12.80;72.38
15794;BME280;7999;51.208;4.244;2022-07-10T01:16:54;102813.63;;;12.81;72.19
15794;BME280;7999;51.208;4.244;2022-07-10T01:19:20;102818.75;;;12.76;73.24
15794;BME280;7999;51.208;4.244;2022-07-10T01:21:49;102824.06;;;12.81;72.74
15794;BME280;7999;51.208;4.244;2022-07-10T01:24:16;102809.13;;;12.74;71.98
15794;BME280;7999;51.208;4.244;2022-07-10T01:26:42;102806.44;;;12.71;71.73
15794;BME280;7999;51.208;4.244;2022-07-10T01:29:10;102806.44;;;12.71;73.33
15794;BME280;7999;51.208;4.244;2022-07-10T01:31:37;102802.00;;;12.66;72.47
15794;BME280;7999;51.208;4.244;2022-07-10T01:34:06;102805.31;;;12.59;72.99
15794;BME280;7999;51.208;4.244;2022-07-10T01:36:33;102811.38;;;12.58;72.90
15794;BME280;7999;51.208;4.244;2022-07-10T01:39:01;102805.88;;;12.46;73.44
15794;BME280;7999;51.208;4.244;2022-07-10T01:41:28;102811.88;;;12.42;73.59
15794;BME280;7999;51.208;4.244;2022-07-10T01:43:55;102803.19;;;12.42;74.10
15794;BME280;7999;51.208;4.244;2022-07-10T01:46:22;102800.53;;;12.40;73.49
15794;BME280;7999;51.208;4.244;2022-07-10T01:48:49;102803.91;;;12.36;73.85
15794;BME280;7999;51.208;4.244;2022-07-10T01:51:16;102805.38;;;12.25;74.76
15794;BME280;7999;51.208;4.244;2022-07-10T01:53:43;102805.50;;;12.31;74.05
15794;BME280;7999;51.208;4.244;2022-07-10T01:56:11;102801.09;;;12.28;74.65
15794;BME280;7999;51.208;4.244;2022-07-10T01:58:38;102800.22;;;12.28;74.23
15794;BME280;7999;51.208;4.244;2022-07-10T02:01:05;102793.16;;;12.24;74.58
15794;BME280;7999;51.208;4.244;2022-07-10T02:03:33;102794.91;;;12.23;74.73
15794;BME280;7999;51.208;4.244;2022-07-10T02:06:16;102800.00;;;12.19;74.76
15794;BME280;7999;51.208;4.244;2022-07-10T02:08:43;102798.25;;;12.18;75.07
15794;BME280;7999;51.208;4.244;2022-07-10T02:11:11;102811.03;;;12.07;75.23
15794;BME280;7999;51.208;4.244;2022-07-10T02:13:38;102810.03;;;12.03;75.69
15794;BME280;7999;51.208;4.244;2022-07-10T02:16:06;102800.69;;;12.10;75.32
15794;BME280;7999;51.208;4.244;2022-07-10T02:18:32;102810.22;;;12.10;75.28
15794;BME280;7999;51.208;4.244;2022-07-10T02:20:59;102800.34;;;11.98;76.30
15794;BME280;7999;51.208;4.244;2022-07-10T02:23:27;102808.91;;;11.92;76.21
15794;BME280;7999;51.208;4.244;2022-07-10T02:25:54;102813.41;;;11.99;75.63
15794;BME280;7999;51.208;4.244;2022-07-10T02:28:23;102817.72;;;11.97;75.97
15794;BME280;7999;51.208;4.244;2022-07-10T02:30:49;102815.09;;;11.97;75.76
15794;BME280;7999;51.208;4.244;2022-07-10T02:33:16;102816.66;;;11.89;76.04
15794;BME280;7999;51.208;4.244;2022-07-10T02:35:43;102814.03;;;11.89;76.30
15794;BME280;7999;51.208;4.244;2022-07-10T02:38:10;102811.25;;;11.82;76.51
15794;BME280;7999;51.208;4.244;2022-07-10T02:40:40;102810.47;;;11.86;76.22
15794;BME280;7999;51.208;4.244;2022-07-10T02:43:08;102810.44;;;11.84;76.40
15794;BME280;7999;51.208;4.244;2022-07-10T02:45:36;102807.84;;;11.84;76.43
15794;BME280;7999;51.208;4.244;2022-07-10T02:48:04;102805.16;;;11.81;76.73
15794;BME280;7999;51.208;4.244;2022-07-10T02:50:30;102803.09;;;11.71;77.36
15794;BME280;7999;51.208;4.244;2022-07-10T02:52:58;102793.59;;;11.73;76.69
15794;BME280;7999;51.208;4.244;2022-07-10T02:55:24;102783.09;;;11.70;77.37
15794;BME280;7999;51.208;4.244;2022-07-10T02:57:51;102772.66;;;11.70;77.30
15794;BME280;7999;51.208;4.244;2022-07-10T03:00:18;102771.78;;;11.69;76.46
15794;BME280;7999;51.208;4.244;2022-07-10T03:02:46;102772.56;;;11.65;76.98
15794;BME280;7999;51.208;4.244;2022-07-10T03:05:15;102767.31;;;11.64;77.50
15794;BME280;7999;51.208;4.244;2022-07-10T03:07:42;102770.84;;;11.66;76.70
15794;BME280;7999;51.208;4.244;2022-07-10T03:10:09;102763.06;;;11.67;76.91
15794;BME280;7999;51.208;4.244;2022-07-10T03:12:36;102768.19;;;11.64;77.51
15794;BME280;7999;51.208;4.244;2022-07-10T03:15:03;102756.81;;;11.61;77.46
15794;BME280;7999;51.208;4.244;2022-07-10T03:17:30;102766.31;;;11.59;77.99
15794;BME280;7999;51.208;4.244;2022-07-10T03:19:58;102763.78;;;11.62;77.18
15794;BME280;7999;51.208;4.244;2022-07-10T03:22:25;102758.41;;;11.56;78.10
15794;BME280;7999;51.208;4.244;2022-07-10T03:24:52;102751.53;;;11.58;77.25
15794;BME280;7999;51.208;4.244;2022-07-10T03:27:19;102754.91;;;11.54;77.35
15794;BME280;7999;51.208;4.244;2022-07-10T03:29:46;102746.06;;;11.49;78.40
15794;BME280;7999;51.208;4.244;2022-07-10T03:32:13;102739.19;;;11.51;78.07
15794;BME280;7999;51.208;4.244;2022-07-10T03:34:39;102735.81;;;11.55;78.18
15794;BME280;7999;51.208;4.244;2022-07-10T03:37:08;102739.34;;;11.57;79.23
15794;BME280;7999;51.208;4.244;2022-07-10T03:39:35;102744.78;;;11.66;77.57
15794;BME280;7999;51.208;4.244;2022-07-10T03:42:02;102754.16;;;11.59;77.91
15794;BME280;7999;51.208;4.244;2022-07-10T03:44:29;102752.44;;;11.60;77.61
15794;BME280;7999;51.208;4.244;2022-07-10T03:46:56;102756.66;;;11.55;77.18
15794;BME280;7999;51.208;4.244;2022-07-10T03:49:22;102761.88;;;11.55;77.49
15794;BME280;7999;51.208;4.244;2022-07-10T03:51:49;102762.66;;;11.52;77.74
15794;BME280;7999;51.208;4.244;2022-07-10T03:54:17;102769.66;;;11.53;77.51
15794;BME280;7999;51.208;4.244;2022-07-10T03:56:44;102773.22;;;11.57;77.77
15794;BME280;7999;51.208;4.244;2022-07-10T03:59:28;102779.19;;;11.53;77.97
15794;BME280;7999;51.208;4.244;2022-07-10T04:01:55;102781.03;;;11.57;77.69
15794;BME280;7999;51.208;4.244;2022-07-10T04:04:22;102781.81;;;11.54;77.78
15794;BME280;7999;51.208;4.244;2022-07-10T04:06:49;102780.06;;;11.53;78.38
15794;BME280;7999;51.208;4.244;2022-07-10T04:09:17;102784.59;;;11.60;78.08
15794;BME280;7999;51.208;4.244;2022-07-10T04:11:44;102783.63;;;11.57;78.48
15794;BME280;7999;51.208;4.244;2022-07-10T04:14:11;102784.50;;;11.57;79.16
15794;BME280;7999;51.208;4.244;2022-07-10T04:16:37;102780.88;;;11.51;80.05
15794;BME280;7999;51.208;4.244;2022-07-10T04:19:04;102787.84;;;11.52;79.96
15794;BME280;7999;51.208;4.244;2022-07-10T04:21:31;102787.91;;;11.55;80.10
15794;BME280;7999;51.208;4.244;2022-07-10T04:23:58;102786.81;;;11.46;80.65
15794;BME280;7999;51.208;4.244;2022-07-10T04:26:26;102787.66;;;11.45;80.83
15794;BME280;7999;51.208;4.244;2022-07-10T04:28:52;102794.81;;;11.53;80.47
15794;BME280;7999;51.208;4.244;2022-07-10T04:31:19;102786.47;;;11.66;79.98
15794;BME280;7999;51.208;4.244;2022-07-10T04:33:46;102787.50;;;11.72;79.78
15794;BME280;7999;51.208;4.244;2022-07-10T04:36:14;102790.88;;;11.68;79.93
15794;BME280;7999;51.208;4.244;2022-07-10T04:38:41;102789.22;;;11.72;79.99
15794;BME280;7999;51.208;4.244;2022-07-10T04:41:08;102782.59;;;11.82;79.38
15794;BME280;7999;51.208;4.244;2022-07-10T04:43:37;102787.47;;;11.71;80.09
15794;BME280;7999;51.208;4.244;2022-07-10T04:46:04;102787.72;;;11.79;79.97
15794;BME280;7999;51.208;4.244;2022-07-10T04:48:32;102776.75;;;11.92;79.27
15794;BME280;7999;51.208;4.244;2022-07-10T04:50:59;102782.88;;;11.94;79.58
15794;BME280;7999;51.208;4.244;2022-07-10T04:53:27;102783.88;;;11.99;79.70
15794;BME280;7999;51.208;4.244;2022-07-10T04:55:54;102777.09;;;12.05;79.68
15794;BME280;7999;51.208;4.244;2022-07-10T04:58:21;102780.63;;;12.07;79.77
15794;BME280;7999;51.208;4.244;2022-07-10T05:00:49;102783.56;;;12.21;79.58
15794;BME280;7999;51.208;4.244;2022-07-10T05:03:16;102784.94;;;12.43;79.01
15794;BME280;7999;51.208;4.244;2022-07-10T05:05:43;102780.84;;;12.93;77.36
15794;BME280;7999;51.208;4.244;2022-07-10T05:08:09;102780.31;;;13.53;75.47
15794;BME280;7999;51.208;4.244;2022-07-10T05:10:36;102775.75;;;13.91;74.13
15794;BME280;7999;51.208;4.244;2022-07-10T05:13:03;102777.47;;;13.89;74.19
15794;BME280;7999;51.208;4.244;2022-07-10T05:15:30;102769.91;;;14.06;74.51
15794;BME280;7999;51.208;4.244;2022-07-10T05:17:59;102780.47;;;14.12;74.20
15794;BME280;7999;51.208;4.244;2022-07-10T05:20:25;102774.44;;;14.18;74.05
15794;BME280;7999;51.208;4.244;2022-07-10T05:22:52;102773.81;;;14.31;73.29
15794;BME280;7999;51.208;4.244;2022-07-10T05:25:18;102780.06;;;13.88;75.07
15794;BME280;7999;51.208;4.244;2022-07-10T05:27:46;102784.69;;;14.03;74.53
15794;BME280;7999;51.208;4.244;2022-07-10T05:30:12;102774.28;;;14.07;74.22
15794;BME280;7999;51.208;4.244;2022-07-10T05:32:42;102783.09;;;14.12;74.42
15794;BME280;7999;51.208;4.244;2022-07-10T05:35:11;102784.03;;;14.17;74.81
15794;BME280;7999;51.208;4.244;2022-07-10T05:37:39;102782.06;;;14.56;73.31
15794;BME280;7999;51.208;4.244;2022-07-10T05:40:06;102781.22;;;14.58;73.46
15794;BME280;7999;51.208;4.244;2022-07-10T05:42:33;102779.34;;;14.51;73.80
15794;BME280;7999;51.208;4.244;2022-07-10T05:45:01;102771.91;;;14.80;73.27
15794;BME280;7999;51.208;4.244;2022-07-10T05:47:28;102768.75;;;15.07;72.83
15794;BME280;7999;51.208;4.244;2022-07-10T05:49:54;102765.44;;;15.22;72.87
15794;BME280;7999;51.208;4.244;2022-07-10T05:52:22;102762.75;;;15.17;73.20
15794;BME280;7999;51.208;4.244;2022-07-10T05:54:49;102749.03;;;15.39;72.42
15794;BME280;7999;51.208;4.244;2022-07-10T05:57:16;102759.56;;;15.44;72.36
15794;BME280;7999;51.208;4.244;2022-07-10T05:59:44;102754.63;;;15.74;71.17
15794;BME280;7999;51.208;4.244;2022-07-10T06:02:12;102750.34;;;15.86;71.27
15794;BME280;7999;51.208;4.244;2022-07-10T06:04:39;102765.16;;;15.77;71.34
15794;BME280;7999;51.208;4.244;2022-07-10T06:07:06;102771.50;;;16.04;70.94
15794;BME280;7999;51.208;4.244;2022-07-10T06:09:34;102760.16;;;16.10;70.78
15794;BME280;7999;51.208;4.244;2022-07-10T06:12:01;102759.41;;;16.21;70.11
15794;BME280;7999;51.208;4.244;2022-07-10T06:14:28;102766.63;;;16.59;68.66
15794;BME280;7999;51.208;4.244;2022-07-10T06:16:55;102757.22;;;16.99;67.29
15794;BME280;7999;51.208;4.244;2022-07-10T06:19:21;102777.03;;;16.44;68.98
15794;BME280;7999;51.208;4.244;2022-07-10T06:21:48;102783.19;;;16.47;70.13
15794;BME280;7999;51.208;4.244;2022-07-10T06:24:36;102785.81;;;16.46;69.36
15794;BME280;7999;51.208;4.244;2022-07-10T06:27:03;102779.03;;;16.78;68.41
15794;BME280;7999;51.208;4.244;2022-07-10T06:29:30;102782.44;;;16.69;68.71
15794;BME280;7999;51.208;4.244;2022-07-10T06:31:57;102779.94;;;16.89;67.73
15794;BME280;7999;51.208;4.244;2022-07-10T06:34:24;102784.28;;;16.84;68.57
15794;BME280;7999;51.208;4.244;2022-07-10T06:36:51;102787.75;;;16.74;69.42
15794;BME280;7999;51.208;4.244;2022-07-10T06:39:17;102779.13;;;17.06;67.87
15794;BME280;7999;51.208;4.244;2022-07-10T06:41:45;102783.63;;;17.40;66.56
15794;BME280;7999;51.208;4.244;2022-07-10T06:44:12;102784.53;;;17.60;66.04
15794;BME280;7999;51.208;4.244;2022-07-10T06:46:40;102786.38;;;18.10;64.46
15794;BME280;7999;51.208;4.244;2022-07-10T06:49:07;102784.56;;;18.29;64.34
15794;BME280;7999;51.208;4.244;2022-07-10T06:51:34;102782.81;;;18.34;63.81
15794;BME280;7999;51.208;4.244;2022-07-10T06:54:01;102780.16;;;18.52;63.04
15794;BME280;7999;51.208;4.244;2022-07-10T06:56:28;102783.72;;;18.36;63.86
15794;BME280;7999;51.208;4.244;2022-07-10T06:58:56;102783.66;;;18.54;62.88
15794;BME280;7999;51.208;4.244;2022-07-10T07:01:23;102781.00;;;18.56;62.84
15794;BME280;7999;51.208;4.244;2022-07-10T07:03:50;102783.59;;;18.91;61.96
15794;BME280;7999;51.208;4.244;2022-07-10T07:06:17;102787.09;;;18.87;62.48
15794;BME280;7999;51.208;4.244;2022-07-10T07:08:44;102780.88;;;19.05;60.91
15794;BME280;7999;51.208;4.244;2022-07-10T07:11:10;102777.13;;;19.55;60.10
15794;BME280;7999;51.208;4.244;2022-07-10T07:13:37;102778.03;;;19.40;61.37
15794;BME280;7999;51.208;4.244;2022-07-10T07:16:06;102767.63;;;19.22;60.95
15794;BME280;7999;51.208;4.244;2022-07-10T07:18:34;102764.78;;;20.58;57.34
15794;BME280;7999;51.208;4.244;2022-07-10T07:21:12;102764.22;;;21.02;55.07
15794;BME280;7999;51.208;4.244;2022-07-10T07:23:56;102770.72;;;20.77;55.27
15794;BME280;7999;51.208;4.244;2022-07-10T07:26:23;102770.78;;;20.71;54.52
15794;BME280;7999;51.208;4.244;2022-07-10T07:28:49;102774.53;;;20.51;55.74
15794;BME280;7999;51.208;4.244;2022-07-10T07:31:17;102769.09;;;20.66;54.49
15794;BME280;7999;51.208;4.244;2022-07-10T07:33:45;102771.63;;;19.85;56.65
15794;BME280;7999;51.208;4.244;2022-07-10T07:36:11;102774.34;;;19.71;56.49
15794;BME280;7999;51.208;4.244;2022-07-10T07:38:38;102770.97;;;19.51;57.81
15794;BME280;7999;51.208;4.244;2022-07-10T07:41:05;102769.88;;;19.84;57.55
15794;BME280;7999;51.208;4.244;2022-07-10T07:43:32;102768.34;;;19.50;58.23
15794;BME280;7999;51.208;4.244;2022-07-10T07:45:58;102768.81;;;20.05;55.52
15794;BME280;7999;51.208;4.244;2022-07-10T07:48:27;102773.56;;;19.59;57.04
15794;BME280;7999;51.208;4.244;2022-07-10T07:50:54;102776.72;;;20.06;56.69
15794;BME280;7999;51.208;4.244;2022-07-10T07:53:20;102764.66;;;19.78;57.37
15794;BME280;7999;51.208;4.244;2022-07-10T07:55:47;102776.28;;;19.47;57.43
15794;BME280;7999;51.208;4.244;2022-07-10T07:58:14;102766.41;;;19.79;55.78
15794;BME280;7999;51.208;4.244;2022-07-10T08:00:40;102775.47;;;20.47;55.03
15794;BME280;7999;51.208;4.244;2022-07-10T08:03:07;102768.50;;;20.40;54.46
15794;BME280;7999;51.208;4.244;2022-07-10T08:05:36;102774.13;;;19.99;56.18
15794;BME280;7999;51.208;4.244;2022-07-10T08:08:03;102767.16;;;20.79;53.57
15794;BME280;7999;51.208;4.244;2022-07-10T08:10:34;102766.69;;;21.17;53.13
15794;BME280;7999;51.208;4.244;2022-07-10T08:13:01;102762.31;;;20.41;54.25
15794;BME280;7999;51.208;4.244;2022-07-10T08:15:28;102765.78;;;20.46;54.63
15794;BME280;7999;51.208;4.244;2022-07-10T08:17:56;102763.16;;;21.17;54.13
15794;BME280;7999;51.208;4.244;2022-07-10T08:20:23;102767.25;;;21.42;51.90
15794;BME280;7999;51.208;4.244;2022-07-10T08:22:52;102766.94;;;21.60;51.27
15794;BME280;7999;51.208;4.244;2022-07-10T08:25:19;102767.28;;;21.95;50.18
15794;BME280;7999;51.208;4.244;2022-07-10T08:27:46;102763.47;;;22.12;49.98
15794;BME280;7999;51.208;4.244;2022-07-10T08:30:13;102760.78;;;22.14;50.33
15794;BME280;7999;51.208;4.244;2022-07-10T08:32:40;102761.97;;;22.44;49.96
15794;BME280;7999;51.208;4.244;2022-07-10T08:35:07;102771.53;;;22.06;49.44
15794;BME280;7999;51.208;4.244;2022-07-10T08:37:36;102759.19;;;22.02;50.10
15794;BME280;7999;51.208;4.244;2022-07-10T08:40:06;102755.84;;;22.42;51.66
15794;BME280;7999;51.208;4.244;2022-07-10T08:42:34;102754.38;;;22.70;49.86
15794;BME280;7999;51.208;4.244;2022-07-10T08:45:01;102764.28;;;21.62;51.47
15794;BME280;7999;51.208;4.244;2022-07-10T08:47:28;102755.19;;;23.57;47.01
15794;BME280;7999;51.208;4.244;2022-07-10T08:49:57;102756.38;;;23.42;47.18
15794;BME280;7999;51.208;4.244;2022-07-10T08:52:25;102754.63;;;22.60;49.23
15794;BME280;7999;51.208;4.244;2022-07-10T08:54:53;102759.38;;;23.29;48.11
15794;BME280;7999;51.208;4.244;2022-07-10T08:57:22;102748.06;;;23.59;47.61
15794;BME280;7999;51.208;4.244;2022-07-10T08:59:50;102749.78;;;23.96;45.27
15794;BME280;7999;51.208;4.244;2022-07-10T09:02:16;102755.72;;;22.49;48.11
15794;BME280;7999;51.208;4.244;2022-07-10T09:04:44;102757.13;;;22.66;50.19
15794;BME280;7999;51.208;4.244;2022-07-10T09:07:11;102750.06;;;21.06;52.46
15794;BME280;7999;51.208;4.244;2022-07-10T09:09:50;102746.47;;;21.72;50.60
15794;BME280;7999;51.208;4.244;2022-07-10T09:12:17;102748.25;;;21.71;51.96
15794;BME280;7999;51.208;4.244;2022-07-10T09:14:46;102752.88;;;22.11;49.99
15794;BME280;7999;51.208;4.244;2022-07-10T09:17:13;102746.56;;;22.19;50.38
15794;BME280;7999;51.208;4.244;2022-07-10T09:19:40;102742.19;;;22.17;50.51
15794;BME280;7999;51.208;4.244;2022-07-10T09:22:08;102728.88;;;22.65;49.71
15794;BME280;7999;51.208;4.244;2022-07-10T09:24:35;102736.97;;;23.00;48.60
15794;BME280;7999;51.208;4.244;2022-07-10T09:27:01;102740.53;;;20.96;52.36
15794;BME280;7999;51.208;4.244;2022-07-10T09:29:29;102740.44;;;22.16;51.57
15794;BME280;7999;51.208;4.244;2022-07-10T09:31:59;102739.19;;;21.84;51.30
15794;BME280;7999;51.208;4.244;2022-07-10T09:34:36;102736.13;;;22.57;49.57
15794;BME280;7999;51.208;4.244;2022-07-10T09:37:19;102730.28;;;22.84;49.79
15794;BME280;7999;51.208;4.244;2022-07-10T09:39:51;102726.78;;;22.82;49.07
15794;BME280;7999;51.208;4.244;2022-07-10T09:42:23;102734.50;;;23.33;47.26
15794;BME280;7999;51.208;4.244;2022-07-10T09:44:50;102728.47;;;22.86;48.37
15794;BME280;7999;51.208;4.244;2022-07-10T09:47:22;102727.53;;;23.29;47.58
15794;BME280;7999;51.208;4.244;2022-07-10T09:49:49;102722.16;;;22.92;47.08
15794;BME280;7999;51.208;4.244;2022-07-10T09:52:16;102720.84;;;23.11;47.42
15794;BME280;7999;51.208;4.244;2022-07-10T09:54:44;102717.56;;;22.98;46.13
15794;BME280;7999;51.208;4.244;2022-07-10T09:57:11;102718.31;;;22.18;47.54
15794;BME280;7999;51.208;4.244;2022-07-10T09:59:40;102723.44;;;23.14;46.88
15794;BME280;7999;51.208;4.244;2022-07-10T10:02:06;102717.59;;;23.37;45.84
15794;BME280;7999;51.208;4.244;2022-07-10T10:04:37;102716.97;;;23.97;45.41
15794;BME280;7999;51.208;4.244;2022-07-10T10:07:04;102719.53;;;23.30;45.73
15794;BME280;7999;51.208;4.244;2022-07-10T10:09:38;102714.63;;;21.76;49.40
15794;BME280;7999;51.208;4.244;2022-07-10T10:12:07;102719.06;;;23.11;47.14
15794;BME280;7999;51.208;4.244;2022-07-10T10:14:37;102714.03;;;23.73;46.17
15794;BME280;7999;51.208;4.244;2022-07-10T10:17:05;102714.38;;;23.23;47.06
15794;BME280;7999;51.208;4.244;2022-07-10T10:19:34;102725.97;;;23.19;46.95
15794;BME280;7999;51.208;4.244;2022-07-10T10:22:26;102722.44;;;22.33;46.80
15794;BME280;7999;51.208;4.244;2022-07-10T10:24:53;102720.06;;;22.64;48.63
15794;BME280;7999;51.208;4.244;2022-07-10T10:27:20;102721.03;;;23.03;48.39
15794;BME280;7999;51.208;4.244;2022-07-10T10:29:48;102726.91;;;23.53;46.72
15794;BME280;7999;51.208;4.244;2022-07-10T10:32:15;102717.47;;;23.04;48.52
15794;BME280;7999;51.208;4.244;2022-07-10T10:34:43;102717.09;;;22.36;48.18
15794;BME280;7999;51.208;4.244;2022-07-10T10:37:31;102713.59;;;22.77;48.60
15794;BME280;7999;51.208;4.244;2022-07-10T10:39:59;102719.75;;;22.36;48.82
15794;BME280;7999;51.208;4.244;2022-07-10T10:42:31;102705.69;;;23.16;46.96
15794;BME280;7999;51.208;4.244;2022-07-10T10:50:33;102709.78;;;23.31;47.29
15794;BME280;7999;51.208;4.244;2022-07-10T10:53:03;102701.22;;;23.91;44.41
15794;BME280;7999;51.208;4.244;2022-07-10T10:55:30;102698.69;;;23.49;45.61
15794;BME280;7999;51.208;4.244;2022-07-10T10:58:11;102694.59;;;24.05;43.81
15794;BME280;7999;51.208;4.244;2022-07-10T11:00:39;102697.22;;;24.07;45.06
15794;BME280;7999;51.208;4.244;2022-07-10T11:03:12;102694.53;;;23.74;45.23
15794;BME280;7999;51.208;4.244;2022-07-10T11:05:39;102689.41;;;23.68;46.09
15794;BME280;7999;51.208;4.244;2022-07-10T11:08:10;102688.59;;;23.28;45.97
15794;BME280;7999;51.208;4.244;2022-07-10T11:10:37;102679.94;;;22.83;46.58
15794;BME280;7999;51.208;4.244;2022-07-10T11:13:05;102679.25;;;23.84;44.80
15794;BME280;7999;51.208;4.244;2022-07-10T11:15:33;102681.84;;;23.15;46.20
15794;BME280;7999;51.208;4.244;2022-07-10T11:18:03;102678.25;;;23.88;45.63
15794;BME280;7999;51.208;4.244;2022-07-10T11:20:31;102679.84;;;24.26;44.14
15794;BME280;7999;51.208;4.244;2022-07-10T11:23:01;102663.38;;;22.70;47.35
15794;BME280;7999;51.208;4.244;2022-07-10T11:25:39;102667.97;;;23.03;45.70
15794;BME280;7999;51.208;4.244;2022-07-10T11:28:10;102672.25;;;23.09;45.99
15794;BME280;7999;51.208;4.244;2022-07-10T11:30:47;102668.50;;;23.53;45.72
15794;BME280;7999;51.208;4.244;2022-07-10T11:33:14;102668.22;;;23.30;46.00
15794;BME280;7999;51.208;4.244;2022-07-10T11:35:44;102662.53;;;23.45;45.50
15794;BME280;7999;51.208;4.244;2022-07-10T11:38:11;102657.66;;;24.27;43.75
15794;BME280;7999;51.208;4.244;2022-07-10T11:40:40;102655.69;;;24.94;44.20
15794;BME280;7999;51.208;4.244;2022-07-10T11:43:06;102652.06;;;25.51;42.65
15794;BME280;7999;51.208;4.244;2022-07-10T11:45:39;102662.44;;;24.77;42.59
15794;BME280;7999;51.208;4.244;2022-07-10T11:48:06;102668.34;;;24.57;44.00
15794;BME280;7999;51.208;4.244;2022-07-10T11:50:34;102663.75;;;24.00;45.05
15794;BME280;7999;51.208;4.244;2022-07-10T11:53:02;102664.75;;;24.28;45.23
15794;BME280;7999;51.208;4.244;2022-07-10T11:55:29;102661.44;;;24.20;44.07
15794;BME280;7999;51.208;4.244;2022-07-10T11:57:59;102660.66;;;24.17;44.00
15794;BME280;7999;51.208;4.244;2022-07-10T12:00:26;102659.16;;;24.69;44.13
15794;BME280;7999;51.208;4.244;2022-07-10T12:02:56;102669.50;;;23.85;45.60
15794;BME280;7999;51.208;4.244;2022-07-10T12:05:30;102674.78;;;24.79;42.43
15794;BME280;7999;51.208;4.244;2022-07-10T12:07:57;102658.28;;;24.68;41.52
15794;BME280;7999;51.208;4.244;2022-07-10T12:10:25;102668.16;;;24.63;43.18
15794;BME280;7999;51.208;4.244;2022-07-10T12:12:53;102662.22;;;24.55;43.25
15794;BME280;7999;51.208;4.244;2022-07-10T12:15:37;102663.75;;;24.32;44.26
15794;BME280;7999;51.208;4.244;2022-07-10T12:18:05;102663.59;;;24.06;43.98
15794;BME280;7999;51.208;4.244;2022-07-10T12:20:32;102664.75;;;24.87;43.78
15794;BME280;7999;51.208;4.244;2022-07-10T12:22:59;102664.66;;;24.90;42.47
15794;BME280;7999;51.208;4.244;2022-07-10T12:25:27;102663.81;;;23.29;45.17
15794;BME280;7999;51.208;4.244;2022-07-10T12:27:57;102655.09;;;24.24;42.80
15794;BME280;7999;51.208;4.244;2022-07-10T12:30:37;102654.75;;;23.00;44.39
15794;BME280;7999;51.208;4.244;2022-07-10T12:33:10;102646.38;;;22.80;45.51
15794;BME280;7999;51.208;4.244;2022-07-10T12:35:45;102651.06;;;23.43;45.05
15794;BME280;7999;51.208;4.244;2022-07-10T12:38:14;102651.66;;;23.90;46.26
15794;BME280;7999;51.208;4.244;2022-07-10T12:40:40;102640.25;;;24.17;43.39
15794;BME280;7999;51.208;4.244;2022-07-10T12:43:08;102645.38;;;25.12;42.10
15794;BME280;7999;51.208;4.244;2022-07-10T12:45:38;102648.22;;;24.78;43.24
15794;BME280;7999;51.208;4.244;2022-07-10T12:48:05;102646.88;;;24.63;41.92
15794;BME280;7999;51.208;4.244;2022-07-10T12:50:32;102641.72;;;24.86;42.77
15794;BME280;7999;51.208;4.244;2022-07-10T12:53:08;102633.41;;;23.42;44.90
15794;BME280;7999;51.208;4.244;2022-07-10T12:55:36;102630.88;;;24.64;43.39
15794;BME280;7999;51.208;4.244;2022-07-10T12:58:05;102629.34;;;24.26;44.47
15794;BME280;7999;51.208;4.244;2022-07-10T13:00:34;102633.69;;;24.88;43.78
15794;BME280;7999;51.208;4.244;2022-07-10T13:03:04;102625.38;;;25.00;43.38
15794;BME280;7999;51.208;4.244;2022-07-10T13:05:31;102631.41;;;25.05;42.82
15794;BME280;7999;51.208;4.244;2022-07-10T13:08:06;102630.94;;;24.91;41.96
15794;BME280;7999;51.208;4.244;2022-07-10T13:10:34;102635.16;;;24.70;44.54